sensor_id;sensor_type;location;lat;lon;timestamp;P1;durP1;ratioP1;P2;durP2;ratioP2
22713;SDS011;11524;50.846;4.326;2023-06-26T00:02:11;6.45;;;5.75;;
22713;SDS011;11524;50.846;4.326;2023-06-26T00:04:37;6.32;;;5.60;;
22713;SDS011;11524;50.846;4.326;2023-06-26T00:07:06;6.80;;;5.75;;
22713;SDS011;11524;50.846;4.326;2023-06-26T00:09:32;9.73;;;5.40;;
22713;SDS011;11524;50.846;4.326;2023-06-26T00:11:57;6.22;;;5.38;;
22713;SDS011;11524;50.846;4.326;2023-06-26T00:14:24;7.22;;;5.72;;
22713;SDS011;11524;50.846;4.326;2023-06-26T00:16:51;6.03;;;5.28;;
22713;SDS011;11524;50.846;4.326;2023-06-26T00:19:16;6.88;;;5.25;;
22713;SDS011;11524;50.846;4.326;2023-06-26T00:21:42;7.75;;;5.45;;
22713;SDS011;11524;50.846;4.326;2023-06-26T00:24:14;5.93;;;5.15;;
22713;SDS011;11524;50.846;4.326;2023-06-26T00:26:39;5.45;;;4.95;;
22713;SDS011;11524;50.846;4.326;2023-06-26T00:29:05;7.75;;;5.22;;
22713;SDS011;11524;50.846;4.326;2023-06-26T00:31:31;5.57;;;4.93;;
22713;SDS011;11524;50.846;4.326;2023-06-26T00:33:56;8.30;;;5.43;;
22713;SDS011;11524;50.846;4.326;2023-06-26T00:36:22;5.32;;;4.82;;
22713;SDS011;11524;50.846;4.326;2023-06-26T00:38:49;5.93;;;4.72;;
22713;SDS011;11524;50.846;4.326;2023-06-26T00:41:15;5.43;;;4.90;;
22713;SDS011;11524;50.846;4.326;2023-06-26T00:43:40;5.78;;;4.80;;
22713;SDS011;11524;50.846;4.326;2023-06-26T00:46:08;5.07;;;4.57;;
22713;SDS011;11524;50.846;4.326;2023-06-26T00:48:36;5.07;;;4.57;;
22713;SDS011;11524;50.846;4.326;2023-06-26T00:51:02;5.65;;;4.45;;
22713;SDS011;11524;50.846;4.326;2023-06-26T00:53:28;5.28;;;4.50;;
22713;SDS011;11524;50.846;4.326;2023-06-26T00:55:55;5.22;;;4.55;;
22713;SDS011;11524;50.846;4.326;2023-06-26T00:58:24;4.97;;;4.07;;
22713;SDS011;11524;50.846;4.326;2023-06-26T01:00:53;4.97;;;4.47;;
22713;SDS011;11524;50.846;4.326;2023-06-26T01:03:22;4.75;;;4.35;;
22713;SDS011;11524;50.846;4.326;2023-06-26T01:05:50;6.38;;;4.68;;
22713;SDS011;11524;50.846;4.326;2023-06-26T01:08:17;5.22;;;4.60;;
22713;SDS011;11524;50.846;4.326;2023-06-26T01:10:43;4.90;;;4.40;;
22713;SDS011;11524;50.846;4.326;2023-06-26T01:13:09;5.32;;;4.43;;
22713;SDS011;11524;50.846;4.326;2023-06-26T01:15:36;4.65;;;4.10;;
22713;SDS011;11524;50.846;4.326;2023-06-26T01:18:01;5.78;;;4.78;;
22713;SDS011;11524;50.846;4.326;2023-06-26T01:20:38;5.32;;;4.15;;
22713;SDS011;11524;50.846;4.326;2023-06-26T01:23:14;5.68;;;4.28;;
22713;SDS011;11524;50.846;4.326;2023-06-26T01:28:33;5.80;;;4.38;;
22713;SDS011;11524;50.846;4.326;2023-06-26T01:31:01;6.07;;;4.18;;
22713;SDS011;11524;50.846;4.326;2023-06-26T01:33:28;6.32;;;4.30;;
22713;SDS011;11524;50.846;4.326;2023-06-26T01:35:54;4.07;;;3.67;;
22713;SDS011;11524;50.846;4.326;2023-06-26T01:38:20;6.63;;;3.75;;
22713;SDS011;11524;50.846;4.326;2023-06-26T01:40:48;5.53;;;4.00;;
22713;SDS011;11524;50.846;4.326;2023-06-26T01:45:51;6.07;;;3.95;;
22713;SDS011;11524;50.846;4.326;2023-06-26T01:48:23;5.13;;;3.75;;
22713;SDS011;11524;50.846;4.326;2023-06-26T01:50:52;4.93;;;3.83;;
22713;SDS011;11524;50.846;4.326;2023-06-26T01:53:19;5.30;;;3.95;;
22713;SDS011;11524;50.846;4.326;2023-06-26T01:55:50;5.93;;;3.85;;
22713;SDS011;11524;50.846;4.326;2023-06-26T01:58:20;6.75;;;4.10;;
22713;SDS011;11524;50.846;4.326;2023-06-26T02:00:48;7.05;;;3.85;;
22713;SDS011;11524;50.846;4.326;2023-06-26T02:03:14;5.55;;;3.67;;
22713;SDS011;11524;50.846;4.326;2023-06-26T02:05:40;3.83;;;3.20;;
22713;SDS011;11524;50.846;4.326;2023-06-26T02:08:07;4.63;;;3.58;;
22713;SDS011;11524;50.846;4.326;2023-06-26T02:10:33;6.03;;;3.55;;
22713;SDS011;11524;50.846;4.326;2023-06-26T02:12:59;8.38;;;3.53;;
22713;SDS011;11524;50.846;4.326;2023-06-26T02:15:26;5.53;;;3.10;;
22713;SDS011;11524;50.846;4.326;2023-06-26T02:17:51;7.80;;;3.92;;
22713;SDS011;11524;50.846;4.326;2023-06-26T02:20:17;5.88;;;4.00;;
22713;SDS011;11524;50.846;4.326;2023-06-26T02:22:42;5.97;;;3.88;;
22713;SDS011;11524;50.846;4.326;2023-06-26T02:25:09;7.30;;;3.35;;
22713;SDS011;11524;50.846;4.326;2023-06-26T02:27:35;3.88;;;2.90;;
22713;SDS011;11524;50.846;4.326;2023-06-26T02:30:01;7.72;;;4.03;;
22713;SDS011;11524;50.846;4.326;2023-06-26T02:32:27;4.95;;;3.40;;
22713;SDS011;11524;50.846;4.326;2023-06-26T02:34:52;4.88;;;3.30;;
22713;SDS011;11524;50.846;4.326;2023-06-26T02:37:19;7.43;;;3.40;;
22713;SDS011;11524;50.846;4.326;2023-06-26T02:39:45;6.20;;;3.58;;
22713;SDS011;11524;50.846;4.326;2023-06-26T02:42:10;5.75;;;3.20;;
22713;SDS011;11524;50.846;4.326;2023-06-26T02:44:36;5.43;;;3.50;;
22713;SDS011;11524;50.846;4.326;2023-06-26T02:47:02;4.30;;;3.20;;
22713;SDS011;11524;50.846;4.326;2023-06-26T02:49:28;4.95;;;3.55;;
22713;SDS011;11524;50.846;4.326;2023-06-26T02:51:54;3.92;;;3.30;;
22713;SDS011;11524;50.846;4.326;2023-06-26T02:54:19;5.65;;;3.30;;
22713;SDS011;11524;50.846;4.326;2023-06-26T02:56:45;3.65;;;2.92;;
22713;SDS011;11524;50.846;4.326;2023-06-26T02:59:11;4.90;;;3.13;;
22713;SDS011;11524;50.846;4.326;2023-06-26T03:01:36;4.85;;;3.03;;
22713;SDS011;11524;50.846;4.326;2023-06-26T03:04:02;5.28;;;3.05;;
22713;SDS011;11524;50.846;4.326;2023-06-26T03:06:27;5.60;;;3.30;;
22713;SDS011;11524;50.846;4.326;2023-06-26T03:08:53;5.53;;;3.10;;
22713;SDS011;11524;50.846;4.326;2023-06-26T03:11:19;8.00;;;3.35;;
22713;SDS011;11524;50.846;4.326;2023-06-26T03:13:44;6.88;;;3.40;;
22713;SDS011;11524;50.846;4.326;2023-06-26T03:16:10;5.95;;;3.15;;
22713;SDS011;11524;50.846;4.326;2023-06-26T03:18:36;7.10;;;3.47;;
22713;SDS011;11524;50.846;4.326;2023-06-26T03:21:01;4.95;;;3.30;;
22713;SDS011;11524;50.846;4.326;2023-06-26T03:23:27;6.90;;;3.15;;
22713;SDS011;11524;50.846;4.326;2023-06-26T03:25:53;4.90;;;2.97;;
22713;SDS011;11524;50.846;4.326;2023-06-26T03:28:19;6.32;;;3.03;;
22713;SDS011;11524;50.846;4.326;2023-06-26T03:30:44;7.80;;;3.05;;
22713;SDS011;11524;50.846;4.326;2023-06-26T03:33:10;5.65;;;3.10;;
22713;SDS011;11524;50.846;4.326;2023-06-26T03:35:36;5.80;;;3.42;;
22713;SDS011;11524;50.846;4.326;2023-06-26T03:38:03;6.75;;;3.53;;
22713;SDS011;11524;50.846;4.326;2023-06-26T03:40:29;6.03;;;3.15;;
22713;SDS011;11524;50.846;4.326;2023-06-26T03:42:54;4.50;;;2.97;;
22713;SDS011;11524;50.846;4.326;2023-06-26T03:45:20;7.32;;;3.22;;
22713;SDS011;11524;50.846;4.326;2023-06-26T03:47:46;5.70;;;3.00;;
22713;SDS011;11524;50.846;4.326;2023-06-26T03:50:14;7.22;;;3.42;;
22713;SDS011;11524;50.846;4.326;2023-06-26T03:52:40;6.68;;;3.20;;
22713;SDS011;11524;50.846;4.326;2023-06-26T03:55:06;6.40;;;3.33;;
22713;SDS011;11524;50.846;4.326;2023-06-26T03:57:31;7.38;;;2.90;;
22713;SDS011;11524;50.846;4.326;2023-06-26T03:59:57;7.15;;;3.20;;
22713;SDS011;11524;50.846;4.326;2023-06-26T04:02:25;6.07;;;3.05;;
22713;SDS011;11524;50.846;4.326;2023-06-26T04:04:51;7.82;;;3.28;;
22713;SDS011;11524;50.846;4.326;2023-06-26T04:07:17;7.68;;;3.20;;
22713;SDS011;11524;50.846;4.326;2023-06-26T04:09:43;7.07;;;3.47;;
22713;SDS011;11524;50.846;4.326;2023-06-26T04:12:09;7.25;;;3.33;;
22713;SDS011;11524;50.846;4.326;2023-06-26T04:14:35;6.13;;;3.25;;
22713;SDS011;11524;50.846;4.326;2023-06-26T04:17:00;5.97;;;3.15;;
22713;SDS011;11524;50.846;4.326;2023-06-26T04:19:28;7.30;;;3.38;;
22713;SDS011;11524;50.846;4.326;2023-06-26T04:21:54;7.65;;;2.92;;
22713;SDS011;11524;50.846;4.326;2023-06-26T04:24:19;6.60;;;3.03;;
22713;SDS011;11524;50.846;4.326;2023-06-26T04:26:45;6.47;;;3.42;;
22713;SDS011;11524;50.846;4.326;2023-06-26T04:29:11;7.57;;;3.15;;
22713;SDS011;11524;50.846;4.326;2023-06-26T04:31:36;6.18;;;3.10;;
22713;SDS011;11524;50.846;4.326;2023-06-26T04:34:03;8.25;;;3.10;;
22713;SDS011;11524;50.846;4.326;2023-06-26T04:36:29;9.00;;;3.38;;
22713;SDS011;11524;50.846;4.326;2023-06-26T04:38:56;8.80;;;3.42;;
22713;SDS011;11524;50.846;4.326;2023-06-26T04:41:22;4.95;;;3.05;;
22713;SDS011;11524;50.846;4.326;2023-06-26T04:43:47;7.45;;;3.28;;
22713;SDS011;11524;50.846;4.326;2023-06-26T04:46:13;6.65;;;3.05;;
22713;SDS011;11524;50.846;4.326;2023-06-26T04:48:39;8.23;;;3.08;;
22713;SDS011;11524;50.846;4.326;2023-06-26T04:51:04;7.32;;;2.70;;
22713;SDS011;11524;50.846;4.326;2023-06-26T04:53:30;8.80;;;3.30;;
22713;SDS011;11524;50.846;4.326;2023-06-26T04:55:55;5.00;;;3.03;;
22713;SDS011;11524;50.846;4.326;2023-06-26T04:58:21;9.45;;;3.40;;
22713;SDS011;11524;50.846;4.326;2023-06-26T05:00:48;9.85;;;3.72;;
22713;SDS011;11524;50.846;4.326;2023-06-26T05:03:14;8.38;;;2.95;;
22713;SDS011;11524;50.846;4.326;2023-06-26T05:05:45;7.13;;;3.10;;
22713;SDS011;11524;50.846;4.326;2023-06-26T05:10:40;6.95;;;3.00;;
22713;SDS011;11524;50.846;4.326;2023-06-26T05:13:06;9.75;;;2.97;;
22713;SDS011;11524;50.846;4.326;2023-06-26T05:15:32;10.50;;;3.55;;
22713;SDS011;11524;50.846;4.326;2023-06-26T05:17:57;11.57;;;3.45;;
22713;SDS011;11524;50.846;4.326;2023-06-26T05:20:23;9.43;;;3.40;;
22713;SDS011;11524;50.846;4.326;2023-06-26T05:22:49;13.02;;;3.40;;
22713;SDS011;11524;50.846;4.326;2023-06-26T05:25:14;13.48;;;3.38;;
22713;SDS011;11524;50.846;4.326;2023-06-26T05:27:40;8.32;;;3.45;;
22713;SDS011;11524;50.846;4.326;2023-06-26T05:30:06;9.73;;;3.38;;
22713;SDS011;11524;50.846;4.326;2023-06-26T05:32:34;7.50;;;3.30;;
22713;SDS011;11524;50.846;4.326;2023-06-26T05:35:00;10.48;;;3.60;;
22713;SDS011;11524;50.846;4.326;2023-06-26T05:37:29;11.05;;;3.50;;
22713;SDS011;11524;50.846;4.326;2023-06-26T05:39:56;12.73;;;3.45;;
22713;SDS011;11524;50.846;4.326;2023-06-26T05:42:22;13.15;;;3.25;;
22713;SDS011;11524;50.846;4.326;2023-06-26T05:44:48;12.65;;;3.30;;
22713;SDS011;11524;50.846;4.326;2023-06-26T05:47:16;14.02;;;3.80;;
22713;SDS011;11524;50.846;4.326;2023-06-26T05:49:42;11.57;;;3.10;;
22713;SDS011;11524;50.846;4.326;2023-06-26T05:52:08;10.52;;;2.90;;
22713;SDS011;11524;50.846;4.326;2023-06-26T05:54:34;7.18;;;2.83;;
22713;SDS011;11524;50.846;4.326;2023-06-26T05:57:00;7.07;;;2.60;;
22713;SDS011;11524;50.846;4.326;2023-06-26T05:59:26;11.77;;;3.35;;
22713;SDS011;11524;50.846;4.326;2023-06-26T06:01:52;10.98;;;2.80;;
22713;SDS011;11524;50.846;4.326;2023-06-26T06:04:17;8.20;;;2.60;;
22713;SDS011;11524;50.846;4.326;2023-06-26T06:06:43;9.63;;;2.78;;
22713;SDS011;11524;50.846;4.326;2023-06-26T06:09:09;6.90;;;2.60;;
22713;SDS011;11524;50.846;4.326;2023-06-26T06:11:34;8.70;;;3.10;;
22713;SDS011;11524;50.846;4.326;2023-06-26T06:14:00;8.30;;;2.63;;
22713;SDS011;11524;50.846;4.326;2023-06-26T06:16:26;9.43;;;2.63;;
22713;SDS011;11524;50.846;4.326;2023-06-26T06:18:54;9.25;;;2.92;;
22713;SDS011;11524;50.846;4.326;2023-06-26T06:21:20;6.55;;;2.40;;
22713;SDS011;11524;50.846;4.326;2023-06-26T06:23:45;10.57;;;2.70;;
22713;SDS011;11524;50.846;4.326;2023-06-26T06:26:11;8.65;;;3.13;;
22713;SDS011;11524;50.846;4.326;2023-06-26T06:28:39;9.95;;;2.70;;
22713;SDS011;11524;50.846;4.326;2023-06-26T06:31:05;6.22;;;2.33;;
22713;SDS011;11524;50.846;4.326;2023-06-26T06:33:31;7.78;;;2.05;;
22713;SDS011;11524;50.846;4.326;2023-06-26T06:35:56;10.73;;;2.40;;
22713;SDS011;11524;50.846;4.326;2023-06-26T06:38:23;7.05;;;2.33;;
22713;SDS011;11524;50.846;4.326;2023-06-26T06:40:49;10.25;;;2.08;;
22713;SDS011;11524;50.846;4.326;2023-06-26T06:43:14;8.55;;;2.25;;
22713;SDS011;11524;50.846;4.326;2023-06-26T06:45:40;8.75;;;2.47;;
22713;SDS011;11524;50.846;4.326;2023-06-26T06:48:06;6.95;;;1.95;;
22713;SDS011;11524;50.846;4.326;2023-06-26T06:50:32;7.63;;;2.42;;
22713;SDS011;11524;50.846;4.326;2023-06-26T06:52:57;8.57;;;2.28;;
22713;SDS011;11524;50.846;4.326;2023-06-26T06:55:23;10.05;;;2.50;;
22713;SDS011;11524;50.846;4.326;2023-06-26T06:57:49;6.32;;;2.35;;
22713;SDS011;11524;50.846;4.326;2023-06-26T07:00:15;7.30;;;2.03;;
22713;SDS011;11524;50.846;4.326;2023-06-26T07:02:42;4.53;;;1.70;;
22713;SDS011;11524;50.846;4.326;2023-06-26T07:05:09;7.70;;;2.30;;
22713;SDS011;11524;50.846;4.326;2023-06-26T07:07:35;5.68;;;2.20;;
22713;SDS011;11524;50.846;4.326;2023-06-26T07:10:05;6.00;;;2.20;;
22713;SDS011;11524;50.846;4.326;2023-06-26T07:12:33;8.40;;;2.15;;
22713;SDS011;11524;50.846;4.326;2023-06-26T07:15:00;5.90;;;1.90;;
22713;SDS011;11524;50.846;4.326;2023-06-26T07:17:27;6.13;;;2.20;;
22713;SDS011;11524;50.846;4.326;2023-06-26T07:19:53;5.90;;;1.90;;
22713;SDS011;11524;50.846;4.326;2023-06-26T07:22:18;6.75;;;2.20;;
22713;SDS011;11524;50.846;4.326;2023-06-26T07:24:46;5.20;;;1.83;;
22713;SDS011;11524;50.846;4.326;2023-06-26T07:27:13;8.18;;;2.20;;
22713;SDS011;11524;50.846;4.326;2023-06-26T07:29:43;6.38;;;1.73;;
22713;SDS011;11524;50.846;4.326;2023-06-26T07:32:08;4.88;;;1.95;;
22713;SDS011;11524;50.846;4.326;2023-06-26T07:34:34;5.50;;;2.13;;
22713;SDS011;11524;50.846;4.326;2023-06-26T07:37:00;4.88;;;1.80;;
22713;SDS011;11524;50.846;4.326;2023-06-26T07:39:25;4.85;;;1.77;;
22713;SDS011;11524;50.846;4.326;2023-06-26T07:41:51;5.50;;;1.92;;
22713;SDS011;11524;50.846;4.326;2023-06-26T07:44:16;5.93;;;2.03;;
22713;SDS011;11524;50.846;4.326;2023-06-26T07:46:42;6.30;;;1.88;;
22713;SDS011;11524;50.846;4.326;2023-06-26T07:49:09;4.85;;;1.70;;
22713;SDS011;11524;50.846;4.326;2023-06-26T07:51:35;6.53;;;1.80;;
22713;SDS011;11524;50.846;4.326;2023-06-26T07:54:01;5.43;;;1.85;;
22713;SDS011;11524;50.846;4.326;2023-06-26T07:56:27;5.30;;;1.73;;
22713;SDS011;11524;50.846;4.326;2023-06-26T07:58:52;4.95;;;1.90;;
22713;SDS011;11524;50.846;4.326;2023-06-26T08:01:18;6.07;;;1.80;;
22713;SDS011;11524;50.846;4.326;2023-06-26T08:03:43;4.72;;;1.98;;
22713;SDS011;11524;50.846;4.326;2023-06-26T08:06:09;6.57;;;2.00;;
22713;SDS011;11524;50.846;4.326;2023-06-26T08:08:35;5.45;;;2.05;;
22713;SDS011;11524;50.846;4.326;2023-06-26T08:11:00;10.15;;;1.98;;
22713;SDS011;11524;50.846;4.326;2023-06-26T08:13:26;11.02;;;2.20;;
22713;SDS011;11524;50.846;4.326;2023-06-26T08:15:53;9.93;;;1.90;;
22713;SDS011;11524;50.846;4.326;2023-06-26T08:18:18;9.38;;;2.10;;
22713;SDS011;11524;50.846;4.326;2023-06-26T08:20:44;8.15;;;2.20;;
22713;SDS011;11524;50.846;4.326;2023-06-26T08:23:09;8.10;;;1.73;;
22713;SDS011;11524;50.846;4.326;2023-06-26T08:25:35;8.88;;;2.10;;
22713;SDS011;11524;50.846;4.326;2023-06-26T08:28:01;7.60;;;2.10;;
22713;SDS011;11524;50.846;4.326;2023-06-26T08:30:26;7.57;;;2.10;;
22713;SDS011;11524;50.846;4.326;2023-06-26T08:32:54;7.25;;;2.17;;
22713;SDS011;11524;50.846;4.326;2023-06-26T08:35:22;4.82;;;1.92;;
22713;SDS011;11524;50.846;4.326;2023-06-26T08:37:49;9.23;;;2.15;;
22713;SDS011;11524;50.846;4.326;2023-06-26T08:40:18;8.32;;;2.10;;
22713;SDS011;11524;50.846;4.326;2023-06-26T08:42:44;6.13;;;2.03;;
22713;SDS011;11524;50.846;4.326;2023-06-26T08:45:10;7.68;;;1.70;;
22713;SDS011;11524;50.846;4.326;2023-06-26T08:47:37;6.03;;;1.92;;
22713;SDS011;11524;50.846;4.326;2023-06-26T08:52:43;7.53;;;2.00;;
22713;SDS011;11524;50.846;4.326;2023-06-26T08:55:20;10.50;;;3.35;;
22713;SDS011;11524;50.846;4.326;2023-06-26T08:57:49;15.50;;;3.60;;
22713;SDS011;11524;50.846;4.326;2023-06-26T09:00:16;12.73;;;3.63;;
22713;SDS011;11524;50.846;4.326;2023-06-26T09:02:43;17.38;;;3.92;;
22713;SDS011;11524;50.846;4.326;2023-06-26T09:05:09;9.13;;;3.08;;
22713;SDS011;11524;50.846;4.326;2023-06-26T09:07:35;8.13;;;2.63;;
22713;SDS011;11524;50.846;4.326;2023-06-26T09:10:00;9.00;;;2.70;;
22713;SDS011;11524;50.846;4.326;2023-06-26T09:12:27;7.95;;;2.63;;
22713;SDS011;11524;50.846;4.326;2023-06-26T09:14:53;8.40;;;2.67;;
22713;SDS011;11524;50.846;4.326;2023-06-26T09:17:24;7.13;;;2.47;;
22713;SDS011;11524;50.846;4.326;2023-06-26T09:19:54;6.20;;;2.30;;
22713;SDS011;11524;50.846;4.326;2023-06-26T09:22:19;7.43;;;2.08;;
22713;SDS011;11524;50.846;4.326;2023-06-26T09:24:45;5.68;;;1.80;;
22713;SDS011;11524;50.846;4.326;2023-06-26T09:27:11;4.97;;;2.22;;
22713;SDS011;11524;50.846;4.326;2023-06-26T09:29:36;6.28;;;2.08;;
22713;SDS011;11524;50.846;4.326;2023-06-26T09:32:02;8.32;;;1.98;;
22713;SDS011;11524;50.846;4.326;2023-06-26T09:34:32;7.13;;;1.95;;
22713;SDS011;11524;50.846;4.326;2023-06-26T09:36:58;6.47;;;1.73;;
22713;SDS011;11524;50.846;4.326;2023-06-26T09:39:29;4.03;;;1.90;;
22713;SDS011;11524;50.846;4.326;2023-06-26T09:41:56;8.48;;;1.90;;
22713;SDS011;11524;50.846;4.326;2023-06-26T09:44:22;2.70;;;1.50;;
22713;SDS011;11524;50.846;4.326;2023-06-26T09:46:48;5.25;;;1.52;;
22713;SDS011;11524;50.846;4.326;2023-06-26T09:49:14;4.78;;;1.80;;
22713;SDS011;11524;50.846;4.326;2023-06-26T09:51:41;4.97;;;1.77;;
22713;SDS011;11524;50.846;4.326;2023-06-26T09:54:07;4.30;;;1.42;;
22713;SDS011;11524;50.846;4.326;2023-06-26T09:56:34;4.93;;;1.70;;
22713;SDS011;11524;50.846;4.326;2023-06-26T09:59:01;5.28;;;1.80;;
22713;SDS011;11524;50.846;4.326;2023-06-26T10:01:29;5.10;;;1.83;;
22713;SDS011;11524;50.846;4.326;2023-06-26T10:03:55;6.47;;;1.85;;
22713;SDS011;11524;50.846;4.326;2023-06-26T10:06:28;6.93;;;2.22;;
22713;SDS011;11524;50.846;4.326;2023-06-26T10:09:02;10.35;;;2.50;;
22713;SDS011;11524;50.846;4.326;2023-06-26T10:11:37;7.38;;;1.90;;
22713;SDS011;11524;50.846;4.326;2023-06-26T10:14:11;7.05;;;1.88;;
22713;SDS011;11524;50.846;4.326;2023-06-26T10:16:37;6.55;;;1.92;;
22713;SDS011;11524;50.846;4.326;2023-06-26T10:19:07;6.22;;;1.90;;
22713;SDS011;11524;50.846;4.326;2023-06-26T10:21:35;3.58;;;1.70;;
22713;SDS011;11524;50.846;4.326;2023-06-26T10:24:06;4.65;;;1.75;;
22713;SDS011;11524;50.846;4.326;2023-06-26T10:26:40;6.68;;;1.70;;
22713;SDS011;11524;50.846;4.326;2023-06-26T10:29:09;3.33;;;1.48;;
22713;SDS011;11524;50.846;4.326;2023-06-26T10:31:36;6.57;;;1.92;;
22713;SDS011;11524;50.846;4.326;2023-06-26T10:34:03;6.13;;;2.05;;
22713;SDS011;11524;50.846;4.326;2023-06-26T10:36:31;5.50;;;2.03;;
22713;SDS011;11524;50.846;4.326;2023-06-26T10:38:59;6.22;;;2.10;;
22713;SDS011;11524;50.846;4.326;2023-06-26T10:41:30;5.78;;;2.00;;
22713;SDS011;11524;50.846;4.326;2023-06-26T10:46:33;5.60;;;2.05;;
22713;SDS011;11524;50.846;4.326;2023-06-26T10:49:13;6.85;;;1.85;;
22713;SDS011;11524;50.846;4.326;2023-06-26T10:51:46;6.10;;;1.88;;
22713;SDS011;11524;50.846;4.326;2023-06-26T10:54:14;5.90;;;1.75;;
22713;SDS011;11524;50.846;4.326;2023-06-26T10:59:22;7.15;;;2.20;;
22713;SDS011;11524;50.846;4.326;2023-06-26T11:02:04;5.72;;;2.17;;
22713;SDS011;11524;50.846;4.326;2023-06-26T11:04:46;5.95;;;2.28;;
22713;SDS011;11524;50.846;4.326;2023-06-26T11:07:19;7.15;;;2.30;;
22713;SDS011;11524;50.846;4.326;2023-06-26T11:12:42;7.53;;;2.20;;
22713;SDS011;11524;50.846;4.326;2023-06-26T11:15:13;6.60;;;2.33;;
22713;SDS011;11524;50.846;4.326;2023-06-26T11:17:44;8.63;;;2.30;;
22713;SDS011;11524;50.846;4.326;2023-06-26T11:20:11;5.88;;;2.33;;
22713;SDS011;11524;50.846;4.326;2023-06-26T11:22:43;7.55;;;2.75;;
22713;SDS011;11524;50.846;4.326;2023-06-26T11:25:12;7.75;;;2.50;;
22713;SDS011;11524;50.846;4.326;2023-06-26T11:30:07;7.28;;;2.58;;
22713;SDS011;11524;50.846;4.326;2023-06-26T11:32:35;8.27;;;2.58;;
22713;SDS011;11524;50.846;4.326;2023-06-26T11:35:01;5.25;;;2.25;;
22713;SDS011;11524;50.846;4.326;2023-06-26T11:37:29;6.80;;;2.33;;
22713;SDS011;11524;50.846;4.326;2023-06-26T11:39:58;7.35;;;2.35;;
22713;SDS011;11524;50.846;4.326;2023-06-26T11:42:24;7.38;;;2.13;;
22713;SDS011;11524;50.846;4.326;2023-06-26T11:44:50;4.47;;;2.00;;
22713;SDS011;11524;50.846;4.326;2023-06-26T11:47:18;5.90;;;2.15;;
22713;SDS011;11524;50.846;4.326;2023-06-26T11:49:46;7.68;;;2.75;;
22713;SDS011;11524;50.846;4.326;2023-06-26T11:52:14;5.20;;;2.05;;
22713;SDS011;11524;50.846;4.326;2023-06-26T11:54:41;6.28;;;1.98;;
22713;SDS011;11524;50.846;4.326;2023-06-26T11:57:07;6.90;;;1.95;;
22713;SDS011;11524;50.846;4.326;2023-06-26T11:59:42;3.50;;;1.65;;
22713;SDS011;11524;50.846;4.326;2023-06-26T12:02:08;4.15;;;1.90;;
22713;SDS011;11524;50.846;4.326;2023-06-26T12:04:38;5.90;;;1.80;;
22713;SDS011;11524;50.846;4.326;2023-06-26T12:07:07;8.52;;;1.80;;
22713;SDS011;11524;50.846;4.326;2023-06-26T12:09:42;6.32;;;2.03;;
22713;SDS011;11524;50.846;4.326;2023-06-26T12:12:12;4.78;;;1.52;;
22713;SDS011;11524;50.846;4.326;2023-06-26T12:14:41;4.43;;;1.67;;
22713;SDS011;11524;50.846;4.326;2023-06-26T12:17:10;5.72;;;2.20;;
22713;SDS011;11524;50.846;4.326;2023-06-26T12:19:38;3.50;;;1.70;;
22713;SDS011;11524;50.846;4.326;2023-06-26T12:22:14;3.78;;;1.50;;
22713;SDS011;11524;50.846;4.326;2023-06-26T12:24:41;3.15;;;1.70;;
22713;SDS011;11524;50.846;4.326;2023-06-26T12:27:09;3.95;;;1.63;;
22713;SDS011;11524;50.846;4.326;2023-06-26T12:29:40;6.47;;;1.98;;
22713;SDS011;11524;50.846;4.326;2023-06-26T12:32:21;3.47;;;1.60;;
22713;SDS011;11524;50.846;4.326;2023-06-26T12:34:50;3.60;;;1.58;;
22713;SDS011;11524;50.846;4.326;2023-06-26T12:37:16;3.30;;;1.67;;
22713;SDS011;11524;50.846;4.326;2023-06-26T12:39:55;4.55;;;2.10;;
22713;SDS011;11524;50.846;4.326;2023-06-26T12:42:26;4.85;;;1.73;;
22713;SDS011;11524;50.846;4.326;2023-06-26T12:44:53;6.72;;;2.72;;
22713;SDS011;11524;50.846;4.326;2023-06-26T12:47:27;6.20;;;2.78;;
22713;SDS011;11524;50.846;4.326;2023-06-26T12:49:54;7.28;;;2.35;;
22713;SDS011;11524;50.846;4.326;2023-06-26T12:52:20;7.97;;;2.88;;
22713;SDS011;11524;50.846;4.326;2023-06-26T12:54:51;5.80;;;2.65;;
22713;SDS011;11524;50.846;4.326;2023-06-26T12:57:25;6.28;;;3.00;;
22713;SDS011;11524;50.846;4.326;2023-06-26T12:59:54;5.85;;;2.85;;
22713;SDS011;11524;50.846;4.326;2023-06-26T13:02:21;6.22;;;2.75;;
22713;SDS011;11524;50.846;4.326;2023-06-26T13:04:53;17.50;;;5.15;;
22713;SDS011;11524;50.846;4.326;2023-06-26T13:07:19;17.55;;;4.85;;
22713;SDS011;11524;50.846;4.326;2023-06-26T13:09:45;14.40;;;4.18;;
22713;SDS011;11524;50.846;4.326;2023-06-26T13:12:13;12.02;;;3.40;;
22713;SDS011;11524;50.846;4.326;2023-06-26T13:14:40;8.82;;;3.05;;
22713;SDS011;11524;50.846;4.326;2023-06-26T13:17:05;8.57;;;3.03;;
22713;SDS011;11524;50.846;4.326;2023-06-26T13:19:31;8.05;;;2.67;;
22713;SDS011;11524;50.846;4.326;2023-06-26T13:21:56;6.70;;;2.40;;
22713;SDS011;11524;50.846;4.326;2023-06-26T13:24:22;5.68;;;2.33;;
22713;SDS011;11524;50.846;4.326;2023-06-26T13:26:48;7.88;;;2.45;;
22713;SDS011;11524;50.846;4.326;2023-06-26T13:29:13;6.00;;;2.10;;
22713;SDS011;11524;50.846;4.326;2023-06-26T13:31:43;9.98;;;3.00;;
22713;SDS011;11524;50.846;4.326;2023-06-26T13:34:09;4.57;;;2.03;;
22713;SDS011;11524;50.846;4.326;2023-06-26T13:36:46;6.18;;;2.50;;
22713;SDS011;11524;50.846;4.326;2023-06-26T13:39:11;7.63;;;2.10;;
22713;SDS011;11524;50.846;4.326;2023-06-26T13:41:37;7.70;;;2.33;;
22713;SDS011;11524;50.846;4.326;2023-06-26T13:44:03;4.07;;;2.17;;
22713;SDS011;11524;50.846;4.326;2023-06-26T13:46:28;8.27;;;1.90;;
22713;SDS011;11524;50.846;4.326;2023-06-26T13:48:54;5.38;;;2.13;;
22713;SDS011;11524;50.846;4.326;2023-06-26T13:51:19;7.85;;;2.00;;
22713;SDS011;11524;50.846;4.326;2023-06-26T13:53:45;4.75;;;2.15;;
22713;SDS011;11524;50.846;4.326;2023-06-26T13:56:11;4.57;;;2.00;;
22713;SDS011;11524;50.846;4.326;2023-06-26T13:58:36;4.93;;;2.00;;
22713;SDS011;11524;50.846;4.326;2023-06-26T14:01:03;4.90;;;1.83;;
22713;SDS011;11524;50.846;4.326;2023-06-26T14:03:29;5.28;;;1.60;;
22713;SDS011;11524;50.846;4.326;2023-06-26T14:05:54;3.92;;;1.98;;
22713;SDS011;11524;50.846;4.326;2023-06-26T14:08:20;4.03;;;1.88;;
22713;SDS011;11524;50.846;4.326;2023-06-26T14:10:46;4.90;;;1.77;;
22713;SDS011;11524;50.846;4.326;2023-06-26T14:13:11;6.85;;;1.88;;
22713;SDS011;11524;50.846;4.326;2023-06-26T14:15:40;5.20;;;1.65;;
22713;SDS011;11524;50.846;4.326;2023-06-26T14:18:07;6.45;;;1.98;;
22713;SDS011;11524;50.846;4.326;2023-06-26T14:20:33;5.25;;;1.77;;
22713;SDS011;11524;50.846;4.326;2023-06-26T14:22:59;5.00;;;1.90;;
22713;SDS011;11524;50.846;4.326;2023-06-26T14:25:24;4.38;;;1.90;;
22713;SDS011;11524;50.846;4.326;2023-06-26T14:27:53;4.82;;;1.85;;
22713;SDS011;11524;50.846;4.326;2023-06-26T14:30:19;4.38;;;1.80;;
22713;SDS011;11524;50.846;4.326;2023-06-26T14:32:45;4.85;;;1.70;;
22713;SDS011;11524;50.846;4.326;2023-06-26T14:35:10;2.55;;;1.67;;
22713;SDS011;11524;50.846;4.326;2023-06-26T14:37:36;6.60;;;2.10;;
22713;SDS011;11524;50.846;4.326;2023-06-26T14:40:04;4.78;;;2.10;;
22713;SDS011;11524;50.846;4.326;2023-06-26T14:42:33;4.60;;;1.80;;
22713;SDS011;11524;50.846;4.326;2023-06-26T14:44:59;6.60;;;1.85;;
22713;SDS011;11524;50.846;4.326;2023-06-26T14:47:26;4.65;;;1.90;;
22713;SDS011;11524;50.846;4.326;2023-06-26T14:49:52;5.35;;;2.00;;
22713;SDS011;11524;50.846;4.326;2023-06-26T14:52:18;6.85;;;1.70;;
22713;SDS011;11524;50.846;4.326;2023-06-26T14:54:43;3.90;;;1.80;;
22713;SDS011;11524;50.846;4.326;2023-06-26T14:57:09;7.95;;;2.00;;
22713;SDS011;11524;50.846;4.326;2023-06-26T14:59:35;6.28;;;2.10;;
22713;SDS011;11524;50.846;4.326;2023-06-26T15:02:01;5.53;;;1.88;;
22713;SDS011;11524;50.846;4.326;2023-06-26T15:04:29;3.95;;;1.73;;
22713;SDS011;11524;50.846;4.326;2023-06-26T15:06:56;3.63;;;1.70;;